createdAt,value
2018-07-08T06:20:06.829Z,3.5
2018-07-08T06:21:10.088Z,3.1
2018-07-08T06:22:13.070Z,3.1
2018-07-08T06:23:16.324Z,3
2018-07-08T06:24:19.295Z,3
2018-07-08T06:25:22.301Z,3
2018-07-08T06:26:25.587Z,3
2018-07-08T06:27:28.571Z,3
2018-07-08T06:28:31.276Z,3
2018-07-08T06:29:34.535Z,3
2018-07-08T06:30:37.509Z,3.1
2018-07-08T06:31:40.943Z,3.1
2018-07-08T06:32:43.727Z,3.1
2018-07-08T06:33:46.967Z,3.1
2018-07-08T06:34:49.948Z,3.1
2018-07-08T06:35:52.934Z,3.1
2018-07-08T06:36:55.916Z,3.1
2018-07-08T06:37:58.896Z,3.1
2018-07-08T06:39:01.605Z,3.1
2018-07-08T06:40:04.870Z,3.1
2018-07-08T06:41:08.131Z,3.1
2018-07-08T06:42:10.896Z,3.1
2018-07-08T06:43:14.155Z,3.1
2018-07-08T06:44:17.403Z,3
2018-07-08T06:45:20.674Z,3.1
2018-07-08T06:46:24.083Z,3.1
2018-07-08T06:47:26.815Z,3.1
2018-07-08T06:48:29.804Z,3
2018-07-08T06:49:32.789Z,3
2018-07-08T06:50:35.494Z,3
2018-07-08T06:51:38.766Z,3
2018-07-08T06:52:42.015Z,3
2018-07-08T06:53:44.705Z,3
2018-07-08T06:54:47.968Z,3
2018-07-08T06:55:50.956Z,3
2018-07-08T06:56:54.209Z,3
2018-07-08T06:57:57.564Z,3
2018-07-08T06:59:00.888Z,3
2018-07-08T07:00:04.143Z,3
2018-07-08T07:01:07.110Z,3
2018-07-08T07:02:10.090Z,3
2018-07-08T07:03:13.344Z,3
2018-07-08T07:04:16.589Z,3
2018-07-08T07:05:19.019Z,2.9
2018-07-08T07:06:22.268Z,2.9
2018-07-08T07:07:25.257Z,2.9
2018-07-08T07:08:27.690Z,2.9
2018-07-08T07:09:30.687Z,2.9
2018-07-08T07:10:33.962Z,2.9
2018-07-08T07:11:37.243Z,2.9
2018-07-08T07:12:39.969Z,2.9
2018-07-08T07:13:43.225Z,2.9
2018-07-08T07:14:46.487Z,2.9
2018-07-08T07:15:49.484Z,2.9
2018-07-08T07:16:52.733Z,2.9
2018-07-08T07:17:56.006Z,2.9
2018-07-08T07:18:59.258Z,2.9
2018-07-08T07:20:02.508Z,2.9
2018-07-08T07:21:05.759Z,2.9
2018-07-08T07:22:09.018Z,2.9
2018-07-08T07:23:12.263Z,2.9
2018-07-08T07:24:15.253Z,2.9
2018-07-08T07:25:18.505Z,2.9
2018-07-08T07:26:21.481Z,2.9
2018-07-08T07:27:24.770Z,2.9
2018-07-08T07:28:27.830Z,2.8
2018-07-08T07:29:31.085Z,2.8
2018-07-08T07:30:34.034Z,2.8
2018-07-08T07:31:37.296Z,2.8
2018-07-08T07:32:40.539Z,2.8
2018-07-08T07:33:43.523Z,2.8
2018-07-08T07:34:46.529Z,2.8
2018-07-08T07:35:49.490Z,2.9
2018-07-08T07:36:52.760Z,2.8
2018-07-08T07:37:55.460Z,2.9
2018-07-08T07:38:58.435Z,2.8
2018-07-08T07:40:01.434Z,2.8
2018-07-08T07:41:04.405Z,2.8
2018-07-08T07:42:07.706Z,2.8
2018-07-08T07:43:10.678Z,2.8
2018-07-08T07:44:13.935Z,2.9
2018-07-08T07:45:17.263Z,2.8
2018-07-08T07:46:20.246Z,2.8
2018-07-08T07:47:23.368Z,2.8
2018-07-08T07:48:26.343Z,2.8
2018-07-08T07:49:29.073Z,2.8
2018-07-08T07:50:32.350Z,2.8
2018-07-08T07:51:35.349Z,2.8
2018-07-08T07:52:38.622Z,2.8
2018-07-08T07:53:41.880Z,2.8
2018-07-08T07:54:44.869Z,2.8
2018-07-08T07:55:47.847Z,2.8
2018-07-08T07:56:51.107Z,2.8
2018-07-08T07:57:54.356Z,2.8
2018-07-08T07:58:57.199Z,2.8
2018-07-08T08:00:00.488Z,2.8
2018-07-08T08:01:03.467Z,2.7
2018-07-08T08:02:06.448Z,2.7
2018-07-08T08:03:09.726Z,2.8
2018-07-08T08:04:12.996Z,2.8
2018-07-08T08:05:15.990Z,2.7
2018-07-08T08:06:18.701Z,2.8
2018-07-08T08:07:21.705Z,2.8
2018-07-08T08:08:25.322Z,2.7
2018-07-08T08:09:28.625Z,2.8
2018-07-08T08:10:31.624Z,2.7
2018-07-08T08:11:34.879Z,2.8
2018-07-08T08:12:38.137Z,2.7
2018-07-08T08:13:41.121Z,2.8
2018-07-08T08:14:44.114Z,2.8
2018-07-08T08:15:47.367Z,2.8
2018-07-08T08:16:50.632Z,2.7
2018-07-08T08:17:53.879Z,2.7
2018-07-08T08:18:57.135Z,2.7
2018-07-08T08:19:59.847Z,2.7
2018-07-08T08:21:03.343Z,2.7
2018-07-08T08:22:06.056Z,2.7
2018-07-08T08:23:09.315Z,2.7
2018-07-08T08:24:12.343Z,2.7
2018-07-08T08:25:15.597Z,2.7
2018-07-08T08:26:18.944Z,2.7
2018-07-08T08:27:21.883Z,2.8
2018-07-08T08:28:24.566Z,2.7
2018-07-08T08:29:27.533Z,2.8
2018-07-08T08:30:30.524Z,2.7
2018-07-08T08:31:33.476Z,2.7
2018-07-08T08:32:36.745Z,2.7
2018-07-08T08:33:39.980Z,2.7
2018-07-08T08:34:43.253Z,2.7
2018-07-08T08:35:46.237Z,2.7
2018-07-08T08:36:48.964Z,2.7
2018-07-08T08:37:51.941Z,2.7
2018-07-08T08:38:54.924Z,2.7
2018-07-08T08:39:58.190Z,2.7
2018-07-08T08:41:01.463Z,2.7
2018-07-08T08:42:04.306Z,2.7
2018-07-08T08:43:06.997Z,2.7
2018-07-08T08:44:09.407Z,2.7
2018-07-08T08:45:12.411Z,2.7
2018-07-08T08:46:15.715Z,2.7
2018-07-08T08:47:18.963Z,2.7
2018-07-08T08:48:22.228Z,2.7
2018-07-08T08:49:25.502Z,2.7
2018-07-08T08:50:28.486Z,2.7
2018-07-08T08:51:31.198Z,2.7
2018-07-08T08:52:34.790Z,2.7
2018-07-08T08:53:38.054Z,2.7
2018-07-08T08:54:41.305Z,2.7
2018-07-08T08:55:44.022Z,2.7
2018-07-08T08:56:47.295Z,2.7
2018-07-08T08:57:50.597Z,2.7
2018-07-08T08:58:53.766Z,2.7
2018-07-08T08:59:57.021Z,2.7
2018-07-08T09:00:59.982Z,2.7
2018-07-08T09:02:03.255Z,2.7
2018-07-08T09:03:06.517Z,2.7
2018-07-08T09:04:09.967Z,2.7
2018-07-08T09:05:13.231Z,2.7
2018-07-08T09:06:16.505Z,2.7
2018-07-08T09:07:19.500Z,2.7
2018-07-08T09:08:22.772Z,2.7
2018-07-08T09:09:25.745Z,2.7
2018-07-08T09:10:28.733Z,2.7
2018-07-08T09:11:31.999Z,2.7
2018-07-08T09:12:35.261Z,2.7
2018-07-08T09:13:38.616Z,2.7
2018-07-08T09:14:41.578Z,2.7
2018-07-08T09:15:44.935Z,2.7
2018-07-08T09:16:47.916Z,2.7
2018-07-08T09:17:50.906Z,2.7
2018-07-08T09:18:53.606Z,2.7
2018-07-08T09:19:56.849Z,2.7
2018-07-08T09:20:59.814Z,2.7
2018-07-08T09:22:02.803Z,2.7
2018-07-08T09:23:06.054Z,2.7
2018-07-08T09:24:09.187Z,2.7
2018-07-08T09:25:12.479Z,2.7
2018-07-08T09:26:15.737Z,2.7
2018-07-08T09:27:18.707Z,2.7
2018-07-08T09:28:21.719Z,2.7
2018-07-08T09:29:25.301Z,2.7
2018-07-08T09:30:28.391Z,2.7
2018-07-08T09:31:31.641Z,2.6
2018-07-08T09:32:35.406Z,2.7
2018-07-08T09:33:38.668Z,2.6
2018-07-08T09:34:41.941Z,2.6
2018-07-08T09:35:45.196Z,2.7
2018-07-08T09:36:48.459Z,2.7
2018-07-08T09:37:51.708Z,2.6
2018-07-08T09:38:55.641Z,2.7
2018-07-08T09:39:59.060Z,2.6
2018-07-08T09:41:02.089Z,2.6
2018-07-08T09:42:05.354Z,2.6
2018-07-08T09:43:08.622Z,2.7
2018-07-08T09:44:11.877Z,2.6
2018-07-08T09:45:15.129Z,2.6
2018-07-08T09:46:18.134Z,2.6
2018-07-08T09:47:21.397Z,2.6
2018-07-08T09:48:24.647Z,2.7
2018-07-08T09:49:27.896Z,2.6
2018-07-08T09:50:31.165Z,2.6
2018-07-08T09:51:34.476Z,2.6
2018-07-08T09:52:37.122Z,2.7
2018-07-08T09:53:39.742Z,2.6
2018-07-08T09:54:42.875Z,2.7
2018-07-08T09:55:46.126Z,2.6
2018-07-08T09:56:49.120Z,2.6
2018-07-08T09:57:51.665Z,2.7
2018-07-08T09:58:54.636Z,2.6
2018-07-08T09:59:57.896Z,2.6
2018-07-08T10:01:01.035Z,2.6
2018-07-08T10:02:03.997Z,2.6
2018-07-08T10:03:06.976Z,2.6
2018-07-08T10:04:09.950Z,2.6
2018-07-08T10:05:12.924Z,2.6
2018-07-08T10:06:15.912Z,2.6
2018-07-08T10:07:18.897Z,2.7
2018-07-08T10:08:21.882Z,2.6
2018-07-08T10:09:25.150Z,2.6
2018-07-08T10:10:28.129Z,2.6
2018-07-08T10:11:31.116Z,2.6
2018-07-08T10:12:34.227Z,2.6
2018-07-08T10:13:37.285Z,2.6
2018-07-08T10:14:40.584Z,2.6
2018-07-08T10:15:43.841Z,2.6
2018-07-08T10:16:47.099Z,2.6
2018-07-08T10:17:51.642Z,2.6
2018-07-08T10:18:55.215Z,2.6
2018-07-08T10:19:58.415Z,2.7
2018-07-08T10:21:01.672Z,2.6
2018-07-08T10:22:04.362Z,2.6
2018-07-08T10:23:07.621Z,2.6
2018-07-08T10:24:10.597Z,2.6
2018-07-08T10:25:14.035Z,2.6
2018-07-08T10:26:17.276Z,2.6
2018-07-08T10:27:20.276Z,2.6
2018-07-08T10:28:23.632Z,2.6
2018-07-08T10:29:26.896Z,2.6
2018-07-08T10:30:30.609Z,2.6
2018-07-08T10:31:33.593Z,2.6
2018-07-08T10:32:36.586Z,2.6
2018-07-08T10:33:39.572Z,2.6
2018-07-08T10:34:42.574Z,2.6
2018-07-08T10:35:45.814Z,2.6
2018-07-08T10:36:49.063Z,2.6
2018-07-08T10:37:52.005Z,2.6
2018-07-08T10:38:55.273Z,2.6
2018-07-08T10:39:58.734Z,2.6
2018-07-08T10:41:01.717Z,2.6
2018-07-08T10:42:04.425Z,2.6
2018-07-08T10:43:07.692Z,2.6
2018-07-08T10:44:10.938Z,2.6
2018-07-08T10:45:13.956Z,2.5
2018-07-08T10:46:16.944Z,2.6
2018-07-08T10:47:20.212Z,2.6
2018-07-08T10:48:23.191Z,2.6
2018-07-08T10:49:26.168Z,2.6
2018-07-08T10:50:29.430Z,2.6
2018-07-08T10:51:32.417Z,2.6
2018-07-08T10:52:35.398Z,2.6
2018-07-08T10:53:38.397Z,2.6
2018-07-08T10:54:41.683Z,2.6
2018-07-08T10:55:44.659Z,2.6
2018-07-08T10:56:47.915Z,2.6
2018-07-08T10:57:50.899Z,2.6
2018-07-08T10:58:53.590Z,2.6
2018-07-08T10:59:56.848Z,2.6
2018-07-08T11:00:59.277Z,2.5
2018-07-08T11:02:02.256Z,2.6
2018-07-08T11:03:05.227Z,2.6
2018-07-08T11:04:07.957Z,2.6
2018-07-08T11:05:11.215Z,2.6
2018-07-08T11:06:14.187Z,2.6
2018-07-08T11:07:16.870Z,2.6
2018-07-08T11:08:19.821Z,2.6
2018-07-08T11:09:23.071Z,2.6
2018-07-08T11:10:26.339Z,2.6
2018-07-08T11:11:29.325Z,2.6
2018-07-08T11:12:32.316Z,2.6
2018-07-08T11:13:35.316Z,2.6
2018-07-08T11:14:38.313Z,2.6
2018-07-08T11:15:40.985Z,2.6
2018-07-08T11:16:44.244Z,2.6
2018-07-08T11:17:47.501Z,2.6
2018-07-08T11:18:50.784Z,2.6
2018-07-08T11:19:54.049Z,2.6
2018-07-08T11:20:57.693Z,2.6
2018-07-08T11:22:00.640Z,2.6
2018-07-08T11:23:03.895Z,2.6
2018-07-08T11:24:07.167Z,2.6
2018-07-08T11:25:10.416Z,2.6
2018-07-08T11:26:13.404Z,2.6
2018-07-08T11:27:16.376Z,2.6
2018-07-08T11:28:19.640Z,2.6
2018-07-08T11:29:23.158Z,2.6
2018-07-08T11:30:25.861Z,2.6
2018-07-08T11:31:29.120Z,2.6
2018-07-08T11:32:32.086Z,2.6
2018-07-08T11:33:35.343Z,2.6
2018-07-08T11:34:38.594Z,2.6
2018-07-08T11:35:41.271Z,2.6
2018-07-08T11:36:44.000Z,2.6
2018-07-08T11:37:46.718Z,2.6
2018-07-08T11:38:49.982Z,2.6
2018-07-08T11:39:53.245Z,2.6
2018-07-08T11:40:56.224Z,2.6
2018-07-08T11:41:59.631Z,2.6
2018-07-08T11:43:03.496Z,2.5
2018-07-08T11:44:06.753Z,2.6
2018-07-08T11:45:09.616Z,2.5
2018-07-08T11:46:12.605Z,2.5
2018-07-08T11:47:16.357Z,2.5
2018-07-08T11:48:19.337Z,2.5
2018-07-08T11:49:21.490Z,2.5
2018-07-08T11:50:24.882Z,2.6
2018-07-08T11:51:27.848Z,2.6
2018-07-08T11:52:31.095Z,2.6
2018-07-08T11:53:34.357Z,2.6
2018-07-08T11:54:37.334Z,2.5
2018-07-08T11:55:40.595Z,2.6
2018-07-08T11:56:43.855Z,2.6
2018-07-08T11:57:46.865Z,2.6
2018-07-08T11:58:50.135Z,2.6
2018-07-08T11:59:53.383Z,2.6
2018-07-08T12:00:56.647Z,2.6
2018-07-08T12:01:59.825Z,2.6
2018-07-08T12:03:02.512Z,2.6
2018-07-08T12:04:05.596Z,2.5
2018-07-08T12:05:08.806Z,2.6
2018-07-08T12:06:11.943Z,2.5
2018-07-08T12:07:14.917Z,2.6
2018-07-08T12:08:17.601Z,2.6
2018-07-08T12:09:20.866Z,2.5
2018-07-08T12:10:24.115Z,2.5
2018-07-08T12:11:27.081Z,2.5
2018-07-08T12:12:30.329Z,2.6
2018-07-08T12:13:33.644Z,2.6
2018-07-08T12:14:37.204Z,2.6
2018-07-08T12:15:40.156Z,2.6
2018-07-08T12:16:43.402Z,2.5
2018-07-08T12:17:46.661Z,2.6
2018-07-08T12:18:49.916Z,2.6
2018-07-08T12:19:52.913Z,2.5
2018-07-08T12:20:55.903Z,2.5
2018-07-08T12:21:59.174Z,2.6
2018-07-08T12:23:02.436Z,2.6
2018-07-08T12:24:05.735Z,2.5
2018-07-08T12:25:08.997Z,2.5
2018-07-08T12:26:11.715Z,2.5
2018-07-08T12:27:15.025Z,2.5
2018-07-08T12:28:18.287Z,2.5
2018-07-08T12:29:20.991Z,2.5
2018-07-08T12:30:23.813Z,2.6
2018-07-08T12:31:27.070Z,2.5
2018-07-08T12:32:30.345Z,2.5
2018-07-08T12:33:33.605Z,2.5
2018-07-08T12:34:36.874Z,2.6
2018-07-08T12:35:39.585Z,2.5
2018-07-08T12:36:43.045Z,2.5
2018-07-08T12:37:46.447Z,2.6
2018-07-08T12:38:49.443Z,2.5
2018-07-08T12:39:52.428Z,2.5
2018-07-08T12:40:55.416Z,2.5
2018-07-08T12:41:58.689Z,2.5
2018-07-08T12:43:02.052Z,2.5
2018-07-08T12:44:05.464Z,2.5
2018-07-08T12:45:08.087Z,2.5
2018-07-08T12:46:11.336Z,2.5
2018-07-08T12:47:14.600Z,2.5
2018-07-08T12:48:17.573Z,2.6
2018-07-08T12:49:20.830Z,2.5
2018-07-08T12:50:24.096Z,2.5
2018-07-08T12:51:27.458Z,2.5
2018-07-08T12:52:30.161Z,2.5
2018-07-08T12:53:33.253Z,2.6
2018-07-08T12:54:36.267Z,2.6
2018-07-08T12:55:39.348Z,2.5
2018-07-08T12:56:42.701Z,2.5
2018-07-08T12:57:45.685Z,2.5
2018-07-08T12:58:49.782Z,2.5
2018-07-08T12:59:52.497Z,2.5
2018-07-08T13:00:55.747Z,2.5
2018-07-08T13:01:58.443Z,2.5
2018-07-08T13:03:01.716Z,2.5
2018-07-08T13:04:04.678Z,2.5
2018-07-08T13:05:07.947Z,2.5
2018-07-08T13:06:11.227Z,2.5
2018-07-08T13:07:14.206Z,2.5
2018-07-08T13:08:17.177Z,2.5
2018-07-08T13:09:20.590Z,2.5
2018-07-08T13:10:23.299Z,2.6
2018-07-08T13:11:26.550Z,2.5
2018-07-08T13:12:29.810Z,2.5
2018-07-08T13:13:32.877Z,2.5
2018-07-08T13:14:35.856Z,2.5
2018-07-08T13:15:39.134Z,2.5
2018-07-08T13:16:42.715Z,2.5
2018-07-08T13:17:45.984Z,2.5
2018-07-08T13:18:48.745Z,2.5
2018-07-08T13:19:52.117Z,2.5
2018-07-08T13:20:55.427Z,2.5
2018-07-08T13:21:58.415Z,2.5
2018-07-08T13:23:01.402Z,2.5
2018-07-08T13:28:16.721Z,2.5
2018-07-08T13:29:19.980Z,2.5
2018-07-08T13:30:23.246Z,2.5
2018-07-08T13:31:26.500Z,2.5
2018-07-08T13:32:30.588Z,2.5
2018-07-08T13:33:33.597Z,2.5
2018-07-08T13:34:36.855Z,2.5
2018-07-08T13:35:39.883Z,2.5
2018-07-08T13:36:43.212Z,2.5
2018-07-08T13:37:46.213Z,2.5
2018-07-08T13:38:49.665Z,2.5
2018-07-08T13:39:52.941Z,2.5
2018-07-08T13:40:56.215Z,2.5
2018-07-08T13:41:59.482Z,2.5
2018-07-08T13:43:02.744Z,2.5
2018-07-08T13:44:05.992Z,2.5
2018-07-08T13:45:09.283Z,2.5
2018-07-08T13:46:12.539Z,2.5
2018-07-08T13:47:15.871Z,2.5
2018-07-08T13:48:18.857Z,2.5
2018-07-08T13:49:22.107Z,2.5
2018-07-08T13:50:25.070Z,2.5
2018-07-08T13:51:27.784Z,2.5
2018-07-08T13:52:30.773Z,2.5
2018-07-08T13:53:34.034Z,2.5
2018-07-08T13:54:37.299Z,2.5
2018-07-08T13:55:40.722Z,2.5
2018-07-08T13:56:44.020Z,2.5
2018-07-08T13:57:47.272Z,2.5
2018-07-08T13:58:50.268Z,2.5
2018-07-08T13:59:53.240Z,2.5
2018-07-08T14:00:56.335Z,2.5
2018-07-08T14:01:59.599Z,2.5
2018-07-08T14:03:02.912Z,2.5
2018-07-08T14:04:06.200Z,2.5
2018-07-08T14:05:09.181Z,2.5
2018-07-08T14:06:12.187Z,2.5
2018-07-08T14:07:15.166Z,2.5
2018-07-08T14:08:18.416Z,2.5
2018-07-08T14:09:22.264Z,2.5
2018-07-08T14:10:25.600Z,2.5
2018-07-08T14:11:28.845Z,2.5
2018-07-08T14:12:31.551Z,2.5
2018-07-08T14:13:34.819Z,2.5
2018-07-08T14:14:38.057Z,2.5
2018-07-08T14:15:40.954Z,2.5
2018-07-08T14:16:43.983Z,2.5
2018-07-08T14:17:47.039Z,2.5
2018-07-08T14:18:50.021Z,2.5
2018-07-08T14:19:52.718Z,2.5
2018-07-08T14:20:56.165Z,2.5
2018-07-08T14:21:59.159Z,2.5
2018-07-08T14:23:02.418Z,2.5
2018-07-08T14:24:05.403Z,2.5
2018-07-08T14:25:08.660Z,2.5
2018-07-08T14:26:11.643Z,2.5
2018-07-08T14:27:14.622Z,2.5
2018-07-08T14:28:17.878Z,2.5
2018-07-08T14:29:21.345Z,2.5
2018-07-08T14:30:24.327Z,2.5
2018-07-08T14:31:27.297Z,2.5
2018-07-08T14:32:30.603Z,2.5
2018-07-08T14:33:33.870Z,2.5
2018-07-08T14:34:37.141Z,2.5
2018-07-08T14:35:40.141Z,2.5
2018-07-08T14:36:43.403Z,2.5
2018-07-08T14:37:46.377Z,2.5
2018-07-08T14:38:49.372Z,2.5
2018-07-08T14:39:52.651Z,2.5
2018-07-08T14:40:55.924Z,2.5
2018-07-08T14:41:58.892Z,2.5
2018-07-08T14:43:02.203Z,2.5
2018-07-08T14:44:05.456Z,2.5
2018-07-08T14:45:08.443Z,2.5
2018-07-08T14:46:11.716Z,2.5
2018-07-08T14:47:15.031Z,2.5
2018-07-08T14:48:18.120Z,2.5
2018-07-08T14:49:21.378Z,2.5
2018-07-08T14:50:24.640Z,2.5
2018-07-08T14:51:27.901Z,2.5
2018-07-08T14:52:30.880Z,2.5
2018-07-08T14:53:33.927Z,2.5
2018-07-08T14:54:37.208Z,2.5
2018-07-08T14:55:39.935Z,2.5
2018-07-08T14:56:43.239Z,2.5
2018-07-08T14:57:46.504Z,2.5
2018-07-08T14:58:49.783Z,2.5
2018-07-08T14:59:52.789Z,2.5
2018-07-08T15:00:56.059Z,2.5
2018-07-08T15:01:58.481Z,2.5
2018-07-08T15:03:01.479Z,2.5
2018-07-08T15:04:04.737Z,2.5
2018-07-08T15:05:07.725Z,2.5
2018-07-08T15:06:10.984Z,2.5
2018-07-08T15:07:13.938Z,2.5
2018-07-08T15:08:16.800Z,2.5
2018-07-08T15:09:19.882Z,2.5
2018-07-08T15:10:23.204Z,2.5
2018-07-08T15:11:26.494Z,2.5
2018-07-08T15:12:29.791Z,2.5
2018-07-08T15:13:32.820Z,2.5
2018-07-08T15:14:35.528Z,2.5
2018-07-08T15:15:39.092Z,2.5
2018-07-08T15:16:42.559Z,2.5
2018-07-08T15:17:45.954Z,2.5
2018-07-08T15:18:49.269Z,2.5
2018-07-08T15:19:52.534Z,2.5
2018-07-08T15:20:55.874Z,2.5
2018-07-08T15:21:59.283Z,2.4
2018-07-08T15:23:02.097Z,2.5
2018-07-08T15:24:05.460Z,2.5
2018-07-08T15:25:08.793Z,2.5
2018-07-08T15:26:11.838Z,2.4
